x

Sentry Shoal (46131) Wave Buoy

3:00 - Tue 17th Jan 2017 All times are PST. -8 hours from GMT.

  • Sig Wave height 5.9ft
  • Peak Period 6s
  • Wind
    31mph, 38mph gusts
  • Sea Temp 47°f
  • Aire Temp 46°f
  • Sea Pressure 1004.3mb
  • Sentry Shoal
  • Sentry Shoal

More Historic Weather Station data

Upgrade to MSW Pro to gain access to the past 30 days of data for over 8000 Wavebouys and Weather Stations around the globe.

Join Pro

Comparision Forecast

View Surf forecast
   
mar 01/17 3:00 6ft 6s 31 38 mph 1004.3mb 47f 46f
2:00 6ft 6s 34 40 mph 1005.4mb 46f 46f
1:00 6ft 6s 27 31 mph 1007.5mb 46f 45f
12:00 7ft 6s 34 40 mph 1007.9mb 46f 45f
lun 01/16 11:00 7ft 6s 34 40 mph 1008.1mb 46f 45f
10:00 6ft 6s 36 43 mph 1007.8mb 46f 45f
9:00 4.5ft 5s 29 36 mph 1008.7mb 46f 45f
8:00 4ft 5s 25 29 mph 1009.5mb 46f 45f
7:00 4.5ft 5s 25 29 mph 1010mb 46f 44f
6:00 4.5ft 5s 29 34 mph 1010.4mb 46f 43f
5:00 4.5ft 5s 27 34 mph 1012mb 46f 43f
4:00 4ft 5s 27 29 mph 1013mb 46f 44f
3:00 3.5ft 4s 25 29 mph 1013.2mb 46f 44f
2:00 3ft 4s 27 31 mph 1013.7mb 46f 44f
1:00 2.5ft 4s 20 25 mph 1015.3mb 45f 43f
12:00 2.5ft 4s 16 20 mph 1017.3mb 45f 43f
11:00 2.5ft 4s 18 22 mph 1018.5mb 45f 43f
10:00 1.6ft 4s 11 16 mph 1019.7mb 45f 41f
9:00 1.3ft 4s 9 13 mph 1020.1mb 44f 41f
8:00 1.3ft 4s 9 11 mph 1020.5mb 45f 41f
7:00 1.6ft 4s 13 16 mph 1021.3mb 45f 42f
6:00 1.6ft 4s 13 16 mph 1022.2mb 45f 42f
5:00 1.3ft 4s 11 13 mph 1022.9mb 45f 42f
4:00 1.3ft 3s 13 16 mph 1023.3mb 45f 42f
3:00 1ft 3s 9 11 mph 1024.2mb 45f 42f
2:00 1ft 3s 7
mph
1023.9mb 45f 41f
1:00 1ft 3s 9 16 mph 1024.7mb 45f 42f
12:00 1ft 2s 9 11 mph 1024.9mb 45f 42f
dom 01/15 11:00 0.7ft 2s 11 13 mph 1025mb 45f 42f
10:00 0.7ft 2s 7 9 mph 1025.7mb 45f 41f
9:00 0.3ft 2s 7 9 mph 1025.8mb 45f 41f
8:00 0.3ft 4s 9 11 mph 1025.5mb 44f 41f
7:00 0.3ft 4s 7 9 mph 1025.5mb 44f 41f
6:00 0.3ft 4s 4 7 mph 1025.3mb 44f 41f
5:00 0.3ft 4s 4 7 mph 1025.7mb 44f 41f
4:00 0.3ft 4s 2 4 mph 1026mb 44f 41f
3:00 0.3ft 4s 2 4 mph 1025.9mb 44f 40f
2:00 0.3ft 5s 2 4 mph 1025.7mb 45f 40f
1:00 0.3ft 5s 2
mph
1026mb 44f 41f
12:00 0.3ft 5s  -  2 mph 1026.5mb 44f 42f
11:00 0.3ft 5s  -  mph 1026.6mb 44f 42f
10:00 0.3ft 5s 2
mph
1026.5mb 44f 41f
9:00 0.3ft 5s 2
mph
1026.2mb 44f 39f
8:00 0.3ft 5s 4
mph
1025.7mb 43f 39f
7:00 0.3ft 5s 7
mph
1025.6mb 44f 38f
6:00 0.3ft 5s  -  2 mph 1025.5mb 44f 39f
5:00 0.3ft 5s 2 4 mph 1025.7mb 44f 39f
4:00 0.3ft 5s 2 4 mph 1026.1mb 44f 39f
3:00 0.3ft 5s 4
mph
1026.7mb 44f 39f
2:00 0.3ft 2s 2 4 mph 1026.9mb 44f 39f
1:00 0.3ft 2s 4
mph
1026.7mb 44f 39f
12:00 0.3ft 2s 7 9 mph 1027mb 44f 39f
sáb 01/14 11:00 0.3ft 4s 9 11 mph 1026.8mb 44f 38f
10:00 0.3ft 5s 4 7 mph 1026.5mb 44f 39f
9:00 0.3ft 5s 7 9 mph 1026.6mb 44f 38f
8:00 0.3ft 2s 7 9 mph 1026.3mb 44f 38f
7:00 0.3ft 5s 4 7 mph 1026.4mb 44f 38f
6:00 0.3ft 5s 2 4 mph 1026.3mb 44f 38f
5:00 0.3ft 5s  -  2 mph 1026.5mb 44f 38f
4:00 0.3ft 5s 2 4 mph 1026.9mb 44f 38f
3:00 0.3ft 5s 2 4 mph 1027.4mb 44f 38f
2:00 0.3ft 7s 2 4 mph 1027.8mb 44f 38f
1:00 0.3ft 5s  -  2 mph 1028.2mb 44f 38f
12:00 0.3ft 5s  -  2 mph 1029.2mb 44f 37f
11:00 0.3ft 5s 2 4 mph 1029.8mb 44f 37f
10:00 0.3ft 5s 2 4 mph 1030.4mb 44f 37f
9:00 0.3ft 5s 4 7 mph 1030.6mb 44f 37f
8:00 0.3ft 5s 4 7 mph 1030.3mb 44f 37f
7:00 0.3ft 5s 4 7 mph 1030mb 44f 37f
6:00 0.3ft 4s 7 9 mph 1030.4mb 44f 37f
5:00 0.3ft 5s 4 7 mph 1031.3mb 44f 37f
4:00 0.3ft 5s 7
mph
1031.6mb 44f 36f
3:00 0.3ft 5s 4 7 mph 1031.8mb 44f 37f
2:00 0.3ft 5s 2 4 mph 1031.8mb 44f 37f
1:00 0.3ft 2s 4
mph
1032mb 44f 37f
12:00 0.3ft 2s 2 4 mph 1032mb 44f 37f
vie 01/13 11:00 0.3ft 2s 4 7 mph 1032.4mb 44f 37f
10:00 0.3ft 2s 4 7 mph 1032.2mb 44f 37f
9:00 0.3ft 2s 4 7 mph 1031.9mb 44f 38f
8:00 0.3ft 5s 4 7 mph 1031.8mb 44f 38f
7:00 0.3ft 5s 4 7 mph 1031.5mb 44f 38f
6:00 0.3ft 5s 4 7 mph 1031.7mb 44f 38f
5:00 0.3ft 2s 4 7 mph 1031.9mb 44f 38f
4:00 0.3ft 2s 4 7 mph 1031.7mb 44f 37f
3:00 0.3ft 2s 4 7 mph 1031.6mb 43f 37f
2:00 0.3ft 2s 4 7 mph 1031.2mb 44f 37f
1:00 0.7ft 3s 4 9 mph 1031.2mb 44f 37f